Terminal Aerodrome Forecast
Issued by NWS

Home | Current Version | Previous Version | Text Only | Print | Product List | Glossary On
Versions: 1 2 3 4 5 6 7 8 9 10 11 12 13 14 15 16 17 18
000
FTUS43 KOAX 280039 AAA
TAFBFF
TAF AMD
KBFF 280039Z 2801/2824 VRB35G45KT 3SM TSRA SCT030 BKN060CB
     FM280130 28009KT P6SM VCTS BKN050CB
     FM280600 32018G26KT P6SM SKC
     FM281100 31013KT P6SM SKC=

USA.gov is the U.S. government's official web portal to all federal, state and local government web resources and services.